createdAt,value
2023-04-17T00:02:03.272Z,9.83
2023-04-17T00:04:49.119Z,7.83
2023-04-17T00:07:34.497Z,10.67
2023-04-17T00:10:18.583Z,10.77
2023-04-17T00:13:04.134Z,13.07
2023-04-17T00:15:48.087Z,12.63
2023-04-17T00:18:32.241Z,10.80
2023-04-17T00:21:17.505Z,11.87
2023-04-17T00:24:01.620Z,11.20
2023-04-17T00:26:45.780Z,11.70
2023-04-17T00:29:29.752Z,10.77
2023-04-17T00:32:13.579Z,12.20
2023-04-17T00:34:57.498Z,12.33
2023-04-17T00:37:42.720Z,12.20
2023-04-17T00:40:26.963Z,12.07
2023-04-17T00:43:10.877Z,11.87
2023-04-17T00:45:55.441Z,14.63
2023-04-17T00:48:41.054Z,17.73
2023-04-17T00:51:25.133Z,19.80
2023-04-17T00:54:11.271Z,11.03
2023-04-17T00:56:57.801Z,9.93
2023-04-17T00:59:44.549Z,9.83
2023-04-17T01:02:28.628Z,10.70
2023-04-17T01:05:12.791Z,12.73
2023-04-17T01:07:58.979Z,12.47
2023-04-17T01:10:44.558Z,10.77
2023-04-17T01:13:28.514Z,12.37
2023-04-17T01:16:13.029Z,11.00
2023-04-17T01:18:57.086Z,10.50
2023-04-17T01:21:42.699Z,9.27
2023-04-17T01:24:27.977Z,8.93
2023-04-17T01:27:13.856Z,9.80
2023-04-17T01:30:00.409Z,10.57
2023-04-17T01:32:48.522Z,14.70
2023-04-17T01:35:32.480Z,15.83
2023-04-17T01:38:16.351Z,17.13
2023-04-17T01:41:08.336Z,19.13
2023-04-17T01:43:52.303Z,18.57
2023-04-17T01:46:36.759Z,18.83
2023-04-17T01:49:20.911Z,19.37
2023-04-17T01:52:05.139Z,20.70
2023-04-17T01:54:49.117Z,21.67
2023-04-17T01:57:36.473Z,21.93
2023-04-17T02:00:22.905Z,22.60
2023-04-17T02:03:07.182Z,22.67
2023-04-17T02:05:51.366Z,23.97
2023-04-17T02:08:35.804Z,34.63
2023-04-17T02:11:20.959Z,44.50
2023-04-17T02:14:09.748Z,46.50
2023-04-17T02:16:53.916Z,48.63
2023-04-17T02:19:37.823Z,46.70
2023-04-17T02:22:22.126Z,50.20
2023-04-17T02:25:06.649Z,49.63
2023-04-17T02:27:50.843Z,44.80
2023-04-17T02:30:36.009Z,50.67
2023-04-17T02:33:20.125Z,52.40
2023-04-17T02:36:04.990Z,48.37
2023-04-17T02:38:54.839Z,46.67
2023-04-17T02:41:38.892Z,44.33
2023-04-17T02:44:23.328Z,45.97
2023-04-17T02:47:09.026Z,45.17
2023-04-17T02:49:53.057Z,45.70
2023-04-17T02:52:37.113Z,45.07
2023-04-17T02:55:22.445Z,46.47
2023-04-17T02:58:06.447Z,45.40
2023-04-17T03:00:50.588Z,45.13
2023-04-17T03:03:42.195Z,43.93
2023-04-17T03:06:30.326Z,43.57
2023-04-17T03:09:15.083Z,41.67
2023-04-17T03:11:59.026Z,40.70
2023-04-17T03:14:44.024Z,39.13
2023-04-17T03:17:28.075Z,39.47
2023-04-17T03:20:16.002Z,39.27
2023-04-17T03:23:01.380Z,39.23
2023-04-17T03:25:45.445Z,38.40
2023-04-17T03:28:31.411Z,38.30
2023-04-17T03:31:15.585Z,38.50
2023-04-17T03:33:59.641Z,36.80
2023-04-17T03:36:46.717Z,33.30
2023-04-17T03:39:32.115Z,35.50
2023-04-17T03:42:17.952Z,35.90
2023-04-17T03:45:03.424Z,38.87
2023-04-17T03:47:50.459Z,36.07
2023-04-17T03:50:35.217Z,38.70
2023-04-17T03:53:21.012Z,36.77
2023-04-17T03:56:06.824Z,36.57
2023-04-17T03:58:54.882Z,35.73
2023-04-17T04:01:39.696Z,32.47
2023-04-17T04:04:31.516Z,31.97
2023-04-17T04:07:23.051Z,19.53
2023-04-17T04:10:10.651Z,18.53
2023-04-17T04:12:54.788Z,17.27
2023-04-17T04:15:38.966Z,17.43
2023-04-17T04:18:23.252Z,17.73
2023-04-17T04:21:07.443Z,17.77
2023-04-17T04:23:56.230Z,16.90
2023-04-17T04:26:42.438Z,18.53
2023-04-17T04:29:26.424Z,15.90
2023-04-17T04:32:15.988Z,17.30
2023-04-17T04:35:03.209Z,16.87
2023-04-17T04:37:47.662Z,17.50
2023-04-17T04:40:36.127Z,17.60
2023-04-17T04:43:22.575Z,18.63
2023-04-17T04:46:11.402Z,18.37
2023-04-17T04:49:00.335Z,18.77
2023-04-17T04:51:44.544Z,19.60
2023-04-17T04:54:29.648Z,17.30
2023-04-17T04:57:16.925Z,17.20
2023-04-17T05:00:09.103Z,18.50
2023-04-17T05:02:56.851Z,18.27
2023-04-17T05:05:43.536Z,20.77
2023-04-17T05:08:30.618Z,22.63
2023-04-17T05:11:25.373Z,25.40
2023-04-17T05:14:09.702Z,23.00
2023-04-17T05:16:57.083Z,20.00
2023-04-17T05:19:41.725Z,16.13
2023-04-17T05:22:28.381Z,16.17
2023-04-17T05:25:24.952Z,16.90
2023-04-17T05:28:12.634Z,17.30
2023-04-17T05:30:58.881Z,14.83
2023-04-17T05:33:50.819Z,15.00
2023-04-17T05:36:34.628Z,14.17
2023-04-17T05:39:21.683Z,16.30
2023-04-17T05:42:06.020Z,16.73
2023-04-17T05:44:50.237Z,15.83
2023-04-17T05:47:35.166Z,15.40
2023-04-17T05:50:20.701Z,13.80
2023-04-17T05:53:05.012Z,13.53
2023-04-17T05:55:53.572Z,14.40
2023-04-17T05:58:38.573Z,21.90
2023-04-17T06:01:23.560Z,19.00
2023-04-17T06:04:10.822Z,13.93
2023-04-17T06:06:56.693Z,12.53
2023-04-17T06:09:41.448Z,13.00
2023-04-17T06:12:27.049Z,14.70
2023-04-17T06:15:12.441Z,17.97
2023-04-17T06:17:56.989Z,19.60
2023-04-17T06:20:42.372Z,19.83
2023-04-17T06:23:27.996Z,18.20
2023-04-17T06:26:12.412Z,18.60
2023-04-17T06:28:56.845Z,15.83
2023-04-17T06:31:42.225Z,16.77
2023-04-17T06:34:26.703Z,17.10
2023-04-17T06:37:11.567Z,17.43
2023-04-17T06:39:57.234Z,18.27
2023-04-17T06:42:41.399Z,19.87
2023-04-17T06:45:29.848Z,17.43
2023-04-17T06:48:13.933Z,25.20
2023-04-17T06:50:58.290Z,24.90
2023-04-17T06:53:42.244Z,16.13
2023-04-17T06:56:27.632Z,16.00
2023-04-17T06:59:12.131Z,13.97
2023-04-17T07:01:56.316Z,19.03
2023-04-17T07:04:40.560Z,15.90
2023-04-17T07:07:24.491Z,20.63
2023-04-17T07:10:09.188Z,14.17
2023-04-17T07:12:55.390Z,13.63
2023-04-17T07:15:39.180Z,15.13
2023-04-17T07:18:23.533Z,20.87
2023-04-17T07:21:07.679Z,19.50
2023-04-17T07:23:51.690Z,16.13
2023-04-17T07:26:37.077Z,14.97
2023-04-17T07:29:22.531Z,12.97
2023-04-17T07:32:07.438Z,13.50
2023-04-17T07:34:51.814Z,13.37
2023-04-17T07:37:37.313Z,9.50
2023-04-17T07:40:21.483Z,10.87
2023-04-17T07:43:05.496Z,12.60
2023-04-17T07:45:51.207Z,13.40
2023-04-17T07:48:35.206Z,9.97
2023-04-17T07:51:19.426Z,11.63
2023-04-17T07:54:03.739Z,14.40
2023-04-17T07:56:49.534Z,12.97
2023-04-17T07:59:33.442Z,14.67
2023-04-17T08:02:20.704Z,14.60
2023-04-17T08:05:07.149Z,13.20
2023-04-17T08:07:51.385Z,13.73
2023-04-17T08:10:35.650Z,16.27
2023-04-17T08:13:19.634Z,15.20
2023-04-17T08:16:04.358Z,17.20
2023-04-17T08:18:49.906Z,10.93
2023-04-17T08:21:34.266Z,11.47
2023-04-17T08:24:19.944Z,11.70
2023-04-17T08:27:05.341Z,9.93
2023-04-17T08:29:49.326Z,13.60
2023-04-17T08:32:39.177Z,10.97
2023-04-17T08:35:25.513Z,11.10
2023-04-17T08:38:10.521Z,13.57
2023-04-17T08:40:59.116Z,13.37
2023-04-17T08:43:44.732Z,12.63
2023-04-17T08:46:30.566Z,10.43
2023-04-17T08:49:14.787Z,12.37
2023-04-17T08:52:03.424Z,11.97
2023-04-17T08:54:49.850Z,11.40
2023-04-17T08:57:35.143Z,12.80
2023-04-17T09:00:25.574Z,12.67
2023-04-17T09:03:12.631Z,12.77
2023-04-17T09:05:58.790Z,14.17
2023-04-17T09:08:57.941Z,12.90
2023-04-17T09:11:41.868Z,12.60
2023-04-17T09:14:32.589Z,13.43
2023-04-17T09:17:18.419Z,11.67
2023-04-17T09:20:07.423Z,13.37
2023-04-17T09:23:01.145Z,16.03
2023-04-17T09:25:46.939Z,9.90
2023-04-17T09:28:35.583Z,10.00
2023-04-17T09:31:27.538Z,11.40
2023-04-17T09:34:13.063Z,11.97
2023-04-17T09:36:57.048Z,10.03
2023-04-17T09:39:56.655Z,10.03
2023-04-17T09:42:55.431Z,7.67
2023-04-17T09:45:42.676Z,8.70
2023-04-17T09:48:27.440Z,11.37
2023-04-17T09:51:12.020Z,10.77
2023-04-17T09:53:57.783Z,10.50
2023-04-17T09:56:42.335Z,7.67
2023-04-17T09:59:28.920Z,13.77
2023-04-17T10:02:15.939Z,8.90
2023-04-17T10:05:02.788Z,8.77
2023-04-17T10:07:48.019Z,9.87
2023-04-17T10:10:34.206Z,9.63
2023-04-17T10:13:21.293Z,9.93
2023-04-17T10:16:07.543Z,10.87
2023-04-17T10:19:26.452Z,11.63
2023-04-17T10:22:34.241Z,10.53
2023-04-17T10:25:20.125Z,10.30
2023-04-17T10:28:04.699Z,10.60
2023-04-17T10:30:54.721Z,13.20
2023-04-17T10:33:50.006Z,11.73
2023-04-17T10:36:52.612Z,12.53
2023-04-17T10:39:54.360Z,8.30
2023-04-17T10:42:38.386Z,12.13
2023-04-17T10:45:22.669Z,9.77
2023-04-17T10:48:06.767Z,12.07
2023-04-17T10:50:52.213Z,14.40
2023-04-17T10:53:44.384Z,9.43
2023-04-17T10:56:30.906Z,10.10
2023-04-17T10:59:16.982Z,11.87
2023-04-17T11:02:06.855Z,11.97
2023-04-17T11:05:07.086Z,13.73
2023-04-17T11:07:52.865Z,9.00
2023-04-17T11:10:38.303Z,10.93
2023-04-17T11:13:22.619Z,17.37
2023-04-17T11:16:07.497Z,11.03
2023-04-17T11:18:52.265Z,9.40
2023-04-17T11:21:40.939Z,8.90
2023-04-17T11:24:27.188Z,11.97
2023-04-17T11:27:11.347Z,12.17
2023-04-17T11:29:55.236Z,14.03
2023-04-17T11:32:39.127Z,11.63
2023-04-17T11:35:28.729Z,12.60
2023-04-17T11:38:14.792Z,9.37
2023-04-17T11:41:01.369Z,8.90
2023-04-17T11:43:46.899Z,10.90
2023-04-17T11:46:31.002Z,9.90
2023-04-17T11:49:14.967Z,9.37
2023-04-17T11:52:02.159Z,8.57
2023-04-17T11:54:46.080Z,7.33
2023-04-17T11:57:42.315Z,7.73
2023-04-17T12:00:29.973Z,7.40
2023-04-17T12:03:33.969Z,7.10
2023-04-17T12:06:18.411Z,7.77
2023-04-17T12:09:03.025Z,8.63
2023-04-17T12:11:46.802Z,9.03
2023-04-17T12:14:32.429Z,9.17
2023-04-17T12:17:16.380Z,7.80
2023-04-17T12:20:03.418Z,8.40
2023-04-17T12:22:48.706Z,8.63
2023-04-17T12:25:33.085Z,7.80
2023-04-17T12:28:16.924Z,8.27
2023-04-17T12:31:02.059Z,8.67
2023-04-17T12:33:45.875Z,8.87
2023-04-17T12:36:29.715Z,8.40
2023-04-17T12:39:14.129Z,9.23
2023-04-17T12:41:57.995Z,7.23
2023-04-17T12:44:41.917Z,7.77
2023-04-17T12:47:27.452Z,9.40
2023-04-17T12:50:12.742Z,8.40
2023-04-17T12:52:56.641Z,6.27
2023-04-17T12:55:41.332Z,6.63
2023-04-17T12:58:25.576Z,6.90
2023-04-17T13:01:09.399Z,7.93
2023-04-17T13:03:55.013Z,6.97
2023-04-17T13:06:39.137Z,7.07
2023-04-17T13:09:22.902Z,7.17
2023-04-17T13:12:07.484Z,6.93
2023-04-17T13:14:51.420Z,7.20
2023-04-17T13:17:35.893Z,8.23
2023-04-17T13:20:21.466Z,7.10
2023-04-17T13:23:05.399Z,7.77
2023-04-17T13:25:49.788Z,6.47
2023-04-17T13:28:33.936Z,8.00
2023-04-17T13:31:18.172Z,8.93
2023-04-17T13:34:02.920Z,7.47
2023-04-17T13:36:49.040Z,7.00
2023-04-17T13:39:33.027Z,7.27
2023-04-17T13:42:17.671Z,7.57
2023-04-17T13:45:01.733Z,7.00
2023-04-17T13:47:49.368Z,7.70
2023-04-17T13:50:33.353Z,6.63
2023-04-17T13:53:18.862Z,7.50
2023-04-17T13:56:02.850Z,8.60
2023-04-17T13:58:48.055Z,7.80
2023-04-17T14:01:32.111Z,9.50
2023-04-17T14:04:16.376Z,7.70
2023-04-17T14:07:00.754Z,8.30
2023-04-17T14:09:46.348Z,7.67
2023-04-17T14:12:30.501Z,9.53
2023-04-17T14:15:14.565Z,8.47
2023-04-17T14:17:59.368Z,11.23
2023-04-17T14:20:43.522Z,8.17
2023-04-17T14:23:27.646Z,8.17
2023-04-17T14:26:13.516Z,7.17
2023-04-17T14:28:57.642Z,9.80
2023-04-17T14:31:41.786Z,8.33
2023-04-17T14:34:26.015Z,8.03
2023-04-17T14:37:10.099Z,8.67
2023-04-17T14:39:54.327Z,7.67
2023-04-17T14:42:51.295Z,7.77
2023-04-17T14:45:38.049Z,12.07
2023-04-17T14:48:23.803Z,7.60
2023-04-17T14:51:12.604Z,10.27
2023-04-17T14:53:56.635Z,12.60
2023-04-17T14:56:41.209Z,16.90
2023-04-17T14:59:28.086Z,11.40
2023-04-17T15:04:56.743Z,9.23
2023-04-17T15:07:40.720Z,9.37
2023-04-17T15:10:24.867Z,9.10
2023-04-17T15:13:08.914Z,7.67
2023-04-17T15:15:55.307Z,8.07
2023-04-17T15:18:39.963Z,9.37
2023-04-17T15:21:24.133Z,9.03
2023-04-17T15:24:08.561Z,10.10
2023-04-17T15:26:52.683Z,7.63
2023-04-17T15:29:36.729Z,8.77
2023-04-17T15:32:22.330Z,8.90
2023-04-17T15:35:07.314Z,8.13
2023-04-17T15:37:51.445Z,9.10
2023-04-17T15:40:35.714Z,8.73
2023-04-17T15:43:20.071Z,8.30
2023-04-17T15:46:05.040Z,9.13
2023-04-17T15:49:04.995Z,8.80
2023-04-17T15:51:52.252Z,8.97
2023-04-17T15:54:36.439Z,9.27
2023-04-17T15:57:20.569Z,12.03
2023-04-17T16:00:05.197Z,9.10
2023-04-17T16:02:54.745Z,9.13
2023-04-17T16:05:40.318Z,11.00
2023-04-17T16:08:24.385Z,9.60
2023-04-17T16:11:08.589Z,11.37
2023-04-17T16:13:52.695Z,10.87
2023-04-17T16:16:36.752Z,10.47
2023-04-17T16:19:20.819Z,10.83
2023-04-17T16:22:06.343Z,10.33
2023-04-17T16:24:50.274Z,11.27
2023-04-17T16:27:35.019Z,11.10
2023-04-17T16:30:19.196Z,10.60
2023-04-17T16:33:03.281Z,14.87
2023-04-17T16:35:47.315Z,11.43
2023-04-17T16:38:32.760Z,14.20
2023-04-17T16:41:16.590Z,12.07
2023-04-17T16:44:00.361Z,10.20
2023-04-17T16:47:05.591Z,10.00
2023-04-17T16:49:48.085Z,10.80
2023-04-17T16:52:32.084Z,9.70
2023-04-17T16:55:17.736Z,10.23
2023-04-17T16:58:04.406Z,10.33
2023-04-17T17:00:49.262Z,10.70
2023-04-17T17:03:39.118Z,11.80
2023-04-17T17:06:23.060Z,10.47
2023-04-17T17:09:06.914Z,11.33
2023-04-17T17:11:52.427Z,12.13
2023-04-17T17:14:36.320Z,10.20
2023-04-17T17:17:20.816Z,17.33
2023-04-17T17:20:04.987Z,13.13
2023-04-17T17:22:49.598Z,14.83
2023-04-17T17:25:33.573Z,12.10
2023-04-17T17:28:18.937Z,13.40
2023-04-17T17:31:03.894Z,10.27
2023-04-17T17:33:50.133Z,10.13
2023-04-17T17:36:34.216Z,10.13
2023-04-17T17:39:18.057Z,9.90
2023-04-17T17:42:04.333Z,10.40
2023-04-17T17:44:49.516Z,10.70
2023-04-17T17:47:33.558Z,11.30
2023-04-17T17:50:17.852Z,10.37
2023-04-17T17:53:01.918Z,10.17
2023-04-17T17:55:52.116Z,10.33
2023-04-17T17:58:36.162Z,10.10
2023-04-17T18:01:22.760Z,11.20
2023-04-17T18:04:07.404Z,9.40
2023-04-17T18:06:51.726Z,11.70
2023-04-17T18:09:36.449Z,11.63
2023-04-17T18:12:20.415Z,11.23
2023-04-17T18:15:04.336Z,11.60
2023-04-17T18:17:49.980Z,15.73
2023-04-17T18:20:38.697Z,14.37
2023-04-17T18:23:22.602Z,10.73
2023-04-17T18:26:06.656Z,10.03
2023-04-17T18:28:51.080Z,10.70
2023-04-17T18:31:35.065Z,11.60
2023-04-17T18:34:23.375Z,11.33
2023-04-17T18:37:07.847Z,10.43
2023-04-17T18:39:53.164Z,10.53
2023-04-17T18:42:37.072Z,12.07
2023-04-17T18:45:20.955Z,11.07
2023-04-17T18:48:05.074Z,9.83
2023-04-17T18:50:51.168Z,15.57
2023-04-17T18:53:35.172Z,12.07
2023-04-17T18:56:19.249Z,10.47
2023-04-17T18:59:03.653Z,11.20
2023-04-17T19:01:48.493Z,11.33
2023-04-17T19:04:32.855Z,12.17
2023-04-17T19:07:19.129Z,12.63
2023-04-17T19:10:05.531Z,11.43
2023-04-17T19:12:49.661Z,11.27
2023-04-17T19:15:33.944Z,11.47
2023-04-17T19:18:18.184Z,12.80
2023-04-17T19:21:02.280Z,11.83
2023-04-17T19:23:48.172Z,10.33
2023-04-17T19:26:32.505Z,12.90
2023-04-17T19:29:17.442Z,9.87
2023-04-17T19:32:01.715Z,11.37
2023-04-17T19:34:46.405Z,12.07
2023-04-17T19:37:30.400Z,11.13
2023-04-17T19:40:24.387Z,12.07
2023-04-17T19:43:09.649Z,10.20
2023-04-17T19:45:53.695Z,10.40
2023-04-17T19:48:38.507Z,11.10
2023-04-17T19:51:23.554Z,13.90
2023-04-17T19:54:08.091Z,13.73
2023-04-17T19:56:53.827Z,13.17
2023-04-17T19:59:38.103Z,11.77
2023-04-17T20:02:22.448Z,11.40
2023-04-17T20:05:07.192Z,12.20
2023-04-17T20:07:51.165Z,15.07
2023-04-17T20:10:35.108Z,14.50
2023-04-17T20:13:20.569Z,15.87
2023-04-17T20:16:04.395Z,13.23
2023-04-17T20:18:49.788Z,15.00
2023-04-17T20:21:33.685Z,14.77
2023-04-17T20:24:17.551Z,15.97
2023-04-17T20:27:02.002Z,11.40
2023-04-17T20:29:47.289Z,11.57
2023-04-17T20:32:31.199Z,11.43
2023-04-17T20:35:15.199Z,11.63
2023-04-17T20:37:59.105Z,11.73
2023-04-17T20:40:43.430Z,12.47
2023-04-17T20:43:27.415Z,11.40
2023-04-17T20:46:12.809Z,11.80
2023-04-17T20:48:56.684Z,10.40
2023-04-17T20:51:40.744Z,11.77
2023-04-17T20:54:26.339Z,13.13
2023-04-17T20:57:10.465Z,12.57
2023-04-17T20:59:54.342Z,11.83
2023-04-17T21:02:39.576Z,13.50
2023-04-17T21:05:23.603Z,13.67
2023-04-17T21:08:07.732Z,15.57
2023-04-17T21:10:51.624Z,17.73
2023-04-17T21:13:35.903Z,14.77
2023-04-17T21:16:19.686Z,12.03
2023-04-17T21:19:04.837Z,14.97
2023-04-17T21:21:48.627Z,15.67
2023-04-17T21:24:32.423Z,14.03
2023-04-17T21:27:16.390Z,15.60
2023-04-17T21:30:00.234Z,13.73
2023-04-17T21:32:44.486Z,15.43
2023-04-17T21:35:29.761Z,15.53
2023-04-17T21:38:13.821Z,14.40
2023-04-17T21:40:57.997Z,12.33
2023-04-17T21:43:41.862Z,15.63
2023-04-17T21:46:25.868Z,15.23
2023-04-17T21:49:09.665Z,13.40
2023-04-17T21:51:54.975Z,12.80
2023-04-17T21:54:38.999Z,14.57
2023-04-17T21:57:22.909Z,12.93
2023-04-17T22:00:11.636Z,12.53
2023-04-17T22:02:55.996Z,12.93
2023-04-17T22:05:40.206Z,13.00
2023-04-17T22:08:26.240Z,12.47
2023-04-17T22:11:10.339Z,13.13
2023-04-17T22:13:54.407Z,13.80
2023-04-17T22:16:38.493Z,14.13
2023-04-17T22:19:22.476Z,13.90
2023-04-17T22:22:06.453Z,17.83
2023-04-17T22:24:51.897Z,19.70
2023-04-17T22:27:35.845Z,16.77
2023-04-17T22:30:19.845Z,14.43
2023-04-17T22:33:03.852Z,14.20
2023-04-17T22:35:47.671Z,13.90
2023-04-17T22:38:31.597Z,18.37
2023-04-17T22:41:16.985Z,18.27
2023-04-17T22:44:00.759Z,17.23
2023-04-17T22:46:44.849Z,15.30
2023-04-17T22:49:28.722Z,16.33
2023-04-17T22:52:12.583Z,17.23
2023-04-17T22:54:56.535Z,22.87
2023-04-17T22:57:41.903Z,15.57
2023-04-17T23:00:26.095Z,20.77
2023-04-17T23:03:10.048Z,20.40
2023-04-17T23:05:54.651Z,14.10
2023-04-17T23:08:38.633Z,14.83
2023-04-17T23:11:22.529Z,14.23
2023-04-17T23:14:07.924Z,15.97
2023-04-17T23:16:52.906Z,20.50
2023-04-17T23:19:36.733Z,15.33
2023-04-17T23:22:20.589Z,14.60
2023-04-17T23:25:04.838Z,14.00
2023-04-17T23:27:48.791Z,17.37
2023-04-17T23:30:34.108Z,15.83
2023-04-17T23:33:17.943Z,14.97
2023-04-17T23:36:01.772Z,11.63
2023-04-17T23:38:45.698Z,19.47
2023-04-17T23:41:29.728Z,19.57
2023-04-17T23:44:13.988Z,16.83
2023-04-17T23:47:00.059Z,16.43
2023-04-17T23:49:44.096Z,14.53
2023-04-17T23:52:28.682Z,14.73
2023-04-17T23:55:12.556Z,16.77
2023-04-17T23:57:57.067Z,17.77
